Time;durP1;ratioP1;P1;durP2;ratioP2;P2;SDS_P1;SDS_P2;PMS_P1;PMS_P2;Temp;Humidity;BMP_temperature;BMP_pressure;BME280_temperature;BME280_humidity;BME280_pressure;Samples;Min_cycle;Max_cycle;Signal;HPM_P1;HPM_P2
2023/11/09 00:02:16;;;;;;;6.10;2.90;;;;;;;15.17;61.62;100235.08;110021;1273;21926;-60
2023/11/09 00:04:42;;;;;;;4.80;2.60;;;;;;;15.16;61.30;100238.48;110011;1285;21939;-66
2023/11/09 00:07:09;;;;;;;6.30;2.40;;;;;;;15.17;60.92;100240.22;110031;1274;21951;-67
2023/11/09 00:09:35;;;;;;;6.80;2.70;;;;;;;15.19;60.82;100240.50;110009;1276;21955;-61
2023/11/09 00:12:00;;;;;;;3.70;2.10;;;;;;;15.17;60.97;100243.21;110014;1279;21918;-60
2023/11/09 00:14:26;;;;;;;3.50;2.00;;;;;;;15.14;60.78;100243.66;110025;1277;21944;-60
2023/11/09 00:16:53;;;;;;;5.80;2.30;;;;;;;15.09;61.23;100247.02;110018;1285;22073;-61
2023/11/09 00:19:19;;;;;;;4.10;2.60;;;;;;;15.07;61.25;100249.02;110039;1283;21939;-59
2023/11/09 00:21:46;;;;;;;3.90;2.20;;;;;;;15.09;61.32;100247.54;110012;1285;22004;-68
2023/11/09 00:24:14;;;;;;;6.60;2.30;;;;;;;15.07;61.55;100248.14;110009;1285;21983;-60
2023/11/09 00:26:45;;;;;;;7.60;2.60;;;;;;;15.08;61.51;100254.64;110024;1274;22101;-59
2023/11/09 00:29:15;;;;;;;6.00;2.60;;;;;;;15.07;61.63;100253.09;108521;1274;1002848;-59
2023/11/09 00:31:40;;;;;;;4.90;2.50;;;;;;;15.08;61.60;100256.94;110018;1283;21953;-60
2023/11/09 00:34:06;;;;;;;6.20;2.70;;;;;;;15.09;61.67;100257.97;110005;1285;21945;-67
2023/11/09 00:36:32;;;;;;;4.00;2.20;;;;;;;15.09;61.66;100259.73;109239;1277;1002103;-68
2023/11/09 00:38:58;;;;;;;4.90;2.30;;;;;;;15.09;61.44;100260.26;110009;1280;21964;-67
2023/11/09 00:41:23;;;;;;;5.10;2.40;;;;;;;15.11;61.65;100256.32;110023;1285;21987;-67
2023/11/09 00:43:51;;;;;;;5.10;2.70;;;;;;;15.10;61.48;100258.29;110020;1283;21910;-68
2023/11/09 00:46:18;;;;;;;6.50;2.70;;;;;;;15.04;61.76;100252.48;109999;1285;21944;-67
2023/11/09 00:48:44;;;;;;;5.70;2.70;;;;;;;14.98;61.90;100250.02;110038;1285;22399;-59
2023/11/09 00:51:10;;;;;;;5.80;2.70;;;;;;;14.95;61.76;100247.30;110030;1276;21991;-59
2023/11/09 00:53:35;;;;;;;7.10;2.80;;;;;;;14.92;61.98;100245.28;110036;1281;21941;-60
2023/11/09 00:56:01;;;;;;;8.10;3.10;;;;;;;14.86;62.25;100250.42;110014;1279;21962;-59
2023/11/09 00:58:26;;;;;;;5.60;2.80;;;;;;;14.79;62.54;100249.38;110019;1274;21969;-68
2023/11/09 01:00:52;;;;;;;6.40;3.20;;;;;;;14.76;62.42;100253.91;110015;1278;22241;-60
2023/11/09 01:03:18;;;;;;;5.80;2.70;;;;;;;14.74;62.40;100257.70;110015;1285;21943;-68
2023/11/09 01:05:45;;;;;;;6.70;2.90;;;;;;;14.71;62.58;100258.64;110015;1281;22006;-68
2023/11/09 01:08:11;;;;;;;4.90;2.80;;;;;;;14.70;62.66;100262.77;110012;1274;21909;-67
2023/11/09 01:10:37;;;;;;;7.50;3.70;;;;;;;14.69;62.46;100266.98;110016;1285;21910;-60
2023/11/09 01:13:02;;;;;;;8.10;3.10;;;;;;;14.66;62.27;100267.05;110001;1285;21912;-62
2023/11/09 01:15:28;;;;;;;7.90;3.40;;;;;;;14.65;62.21;100269.22;110033;1279;21953;-60
2023/11/09 01:18:04;;;;;;;6.30;2.90;;;;;;;14.61;62.18;100268.27;110034;1280;21931;-66
2023/11/09 01:20:34;;;;;;;5.70;2.40;;;;;;;14.56;62.17;100269.30;110001;1285;21874;-60
2023/11/09 01:22:59;;;;;;;6.70;3.20;;;;;;;14.49;62.43;100269.17;110004;1285;22019;-60
2023/11/09 01:25:25;;;;;;;8.60;3.70;;;;;;;14.44;62.25;100275.86;110029;1285;21928;-60
2023/11/09 01:27:50;;;;;;;5.80;3.20;;;;;;;14.38;62.04;100276.91;110015;1283;21919;-67
2023/11/09 01:30:16;;;;;;;6.30;3.40;;;;;;;14.35;61.82;100278.77;110025;1281;21925;-60
2023/11/09 01:32:41;;;;;;;6.80;2.90;;;;;;;14.32;61.89;100282.23;110018;1275;21933;-59
2023/11/09 01:35:07;;;;;;;5.20;2.80;;;;;;;14.29;61.90;100288.28;109996;1285;21931;-60
2023/11/09 01:37:34;;;;;;;5.80;2.90;;;;;;;14.29;61.78;100291.13;110014;1279;21921;-67
2023/11/09 01:40:00;;;;;;;7.50;3.10;;;;;;;14.29;61.64;100297.84;110009;1279;21932;-67
2023/11/09 01:42:26;;;;;;;5.60;2.80;;;;;;;14.27;61.66;100307.23;110018;1285;21948;-60
2023/11/09 01:44:51;;;;;;;7.50;3.70;;;;;;;14.22;61.64;100309.14;110022;1274;21851;-61
2023/11/09 01:47:17;;;;;;;6.60;3.20;;;;;;;14.18;61.53;100311.00;110001;1276;21928;-67
2023/11/09 01:49:43;;;;;;;4.50;2.50;;;;;;;14.15;61.30;100312.69;110011;1285;21941;-67
2023/11/09 01:52:09;;;;;;;7.90;3.70;;;;;;;14.12;61.37;100316.85;110007;1285;21959;-67
2023/11/09 01:54:35;;;;;;;4.70;2.80;;;;;;;14.06;61.51;100322.98;110015;1283;21953;-60
2023/11/09 01:57:02;;;;;;;6.50;3.50;;;;;;;13.98;61.58;100325.85;110017;1278;21942;-66
2023/11/09 01:59:28;;;;;;;6.80;3.40;;;;;;;13.93;61.55;100329.54;110006;1280;21952;-60
2023/11/09 02:01:55;;;;;;;8.30;3.50;;;;;;;13.89;61.53;100327.52;110025;1285;21939;-60
2023/11/09 02:04:20;;;;;;;7.20;3.30;;;;;;;13.88;61.21;100328.43;109962;1285;21968;-66
2023/11/09 02:06:46;;;;;;;6.30;2.90;;;;;;;13.88;61.42;100330.73;109913;1279;21894;-66
2023/11/09 02:09:12;;;;;;;6.70;3.00;;;;;;;13.88;61.35;100336.02;110018;1285;21954;-67
2023/11/09 02:11:38;;;;;;;6.70;3.10;;;;;;;13.87;61.25;100340.11;110020;1285;21882;-66
2023/11/09 02:14:04;;;;;;;6.20;3.40;;;;;;;13.85;61.42;100339.61;110032;1280;21975;-66
2023/11/09 02:16:31;;;;;;;8.80;3.20;;;;;;;13.82;61.56;100346.38;110023;1285;21932;-61
2023/11/09 02:18:57;;;;;;;8.10;3.50;;;;;;;13.79;61.75;100350.35;110035;1279;21962;-60
2023/11/09 02:21:23;;;;;;;6.80;3.50;;;;;;;13.77;61.86;100353.23;109962;1280;21917;-60
2023/11/09 02:23:49;;;;;;;7.50;3.40;;;;;;;13.78;61.91;100355.67;109978;1285;21930;-61
2023/11/09 02:26:14;;;;;;;5.30;3.30;;;;;;;13.77;62.01;100359.40;109970;1285;21893;-66
2023/11/09 02:28:40;;;;;;;7.40;3.50;;;;;;;13.80;61.73;100359.69;110015;1276;21874;-66
2023/11/09 02:31:06;;;;;;;6.70;3.70;;;;;;;13.84;61.78;100364.17;110034;1280;21900;-64
2023/11/09 02:33:32;;;;;;;7.30;3.70;;;;;;;13.83;61.91;100368.23;110045;1285;21941;-61
2023/11/09 02:35:57;;;;;;;6.40;3.20;;;;;;;13.87;61.67;100374.85;110013;1285;22001;-64
2023/11/09 02:38:23;;;;;;;5.90;3.70;;;;;;;13.90;61.72;100382.52;109962;1281;21946;-66
2023/11/09 02:40:48;;;;;;;11.90;3.90;;;;;;;13.93;61.67;100392.48;110009;1280;21915;-60
2023/11/09 02:43:15;;;;;;;6.00;3.10;;;;;;;13.98;61.55;100393.95;110016;1285;22000;-67
2023/11/09 02:45:41;;;;;;;5.50;3.20;;;;;;;14.02;61.47;100400.91;110017;1285;21915;-60
2023/11/09 02:48:06;;;;;;;6.40;3.30;;;;;;;14.04;61.36;100407.20;110029;1280;21934;-67
2023/11/09 02:50:32;;;;;;;7.60;3.60;;;;;;;14.07;61.38;100412.95;110015;1285;21937;-67
2023/11/09 02:52:58;;;;;;;8.40;3.80;;;;;;;14.07;61.15;100412.42;110037;1281;21911;-60
2023/11/09 02:55:23;;;;;;;7.00;4.20;;;;;;;14.06;60.94;100418.46;110021;1285;21876;-60
2023/11/09 02:57:49;;;;;;;7.00;4.40;;;;;;;14.07;60.89;100420.91;110007;1285;21949;-67
2023/11/09 03:00:15;;;;;;;7.30;3.70;;;;;;;14.07;60.64;100423.70;108499;1285;1002241;-60
2023/11/09 03:02:41;;;;;;;6.20;4.10;;;;;;;14.06;60.49;100429.74;110022;1281;22161;-60
2023/11/09 03:05:07;;;;;;;7.70;4.50;;;;;;;14.04;60.42;100431.73;109991;1280;21928;-59
2023/11/09 03:07:33;;;;;;;8.60;4.30;;;;;;;14.01;60.24;100432.35;110014;1285;22083;-67
2023/11/09 03:09:59;;;;;;;7.50;5.00;;;;;;;13.97;60.22;100437.19;109998;1285;21997;-59
2023/11/09 03:12:26;;;;;;;8.30;4.20;;;;;;;13.93;60.06;100438.52;110021;1275;21931;-60
2023/11/09 03:14:52;;;;;;;7.50;4.10;;;;;;;13.88;60.14;100440.79;109992;1285;21950;-67
2023/11/09 03:17:20;;;;;;;7.80;4.80;;;;;;;13.84;60.29;100443.52;109996;1281;21991;-67
2023/11/09 03:19:46;;;;;;;8.10;4.50;;;;;;;13.80;60.30;100447.84;109999;1285;22362;-60
2023/11/09 03:22:12;;;;;;;8.20;4.40;;;;;;;13.76;60.51;100448.83;110022;1283;21940;-59
2023/11/09 03:24:40;;;;;;;6.50;4.10;;;;;;;13.74;60.55;100452.56;109998;1285;21964;-66
2023/11/09 03:27:09;;;;;;;8.00;4.00;;;;;;;13.69;60.60;100450.42;110006;1283;21931;-66
2023/11/09 03:29:35;;;;;;;8.30;4.50;;;;;;;13.64;60.95;100453.54;110016;1277;21953;-66
2023/11/09 03:32:01;;;;;;;7.50;4.30;;;;;;;13.58;60.88;100461.61;110010;1280;21931;-61
2023/11/09 03:34:27;;;;;;;8.40;5.10;;;;;;;13.55;60.99;100465.54;110029;1280;22003;-66
2023/11/09 03:36:52;;;;;;;9.40;4.60;;;;;;;13.54;61.05;100467.15;110002;1285;21915;-67
2023/11/09 03:39:19;;;;;;;8.20;4.50;;;;;;;13.54;60.98;100471.56;110023;1285;21946;-63
2023/11/09 03:41:49;;;;;;;8.70;5.50;;;;;;;13.50;61.16;100475.88;110005;1273;22398;-67
2023/11/09 03:44:14;;;;;;;10.40;4.60;;;;;;;13.48;60.81;100480.16;110003;1285;21975;-66
2023/11/09 03:46:40;;;;;;;8.00;4.40;;;;;;;13.44;60.70;100484.66;110007;1285;21929;-61
2023/11/09 03:49:07;;;;;;;8.70;4.50;;;;;;;13.39;60.75;100483.87;110017;1283;22006;-66
2023/11/09 03:51:34;;;;;;;8.30;4.50;;;;;;;13.35;60.72;100484.48;109999;1285;21912;-66
2023/11/09 03:53:59;;;;;;;11.40;5.20;;;;;;;13.30;60.78;100488.80;109985;1280;21962;-60
2023/11/09 03:56:25;;;;;;;19.40;14.60;;;;;;;13.25;60.74;100492.61;109997;1276;21930;-67
2023/11/09 03:58:51;;;;;;;13.80;5.50;;;;;;;13.22;60.94;100500.45;109998;1274;21925;-66
2023/11/09 04:01:19;;;;;;;8.40;4.30;;;;;;;13.18;61.37;100501.59;110006;1274;22005;-66
2023/11/09 04:03:45;;;;;;;6.60;3.80;;;;;;;13.16;61.29;100498.46;110020;1276;21923;-66
2023/11/09 04:06:17;;;;;;;10.40;4.60;;;;;;;13.12;61.32;100502.23;110002;1285;21965;-60
2023/11/09 04:08:46;;;;;;;10.10;4.50;;;;;;;13.13;61.70;100502.56;110033;1275;21904;-63
2023/11/09 04:11:12;;;;;;;8.70;5.00;;;;;;;13.13;61.75;100509.09;109999;1285;21944;-60
2023/11/09 04:13:39;;;;;;;9.50;4.80;;;;;;;13.12;61.87;100512.45;110029;1285;21945;-66
2023/11/09 04:16:05;;;;;;;13.40;4.40;;;;;;;13.07;62.31;100515.89;110020;1285;21890;-64
2023/11/09 04:18:33;;;;;;;12.20;4.80;;;;;;;13.07;61.76;100517.30;110023;1285;21950;-59
2023/11/09 04:20:59;;;;;;;7.90;4.20;;;;;;;13.06;62.35;100519.27;110003;1274;22014;-60
2023/11/09 04:23:25;;;;;;;9.40;4.90;;;;;;;13.01;62.64;100519.55;109996;1283;21936;-65
2023/11/09 04:25:52;;;;;;;9.50;4.60;;;;;;;12.93;63.39;100519.88;110025;1285;22013;-66
2023/11/09 04:28:18;;;;;;;11.40;5.40;;;;;;;12.93;62.73;100523.39;110005;1283;21955;-60
2023/11/09 04:30:43;;;;;;;7.60;4.90;;;;;;;12.89;63.23;100527.86;109993;1280;22008;-60
2023/11/09 04:33:09;;;;;;;10.10;5.00;;;;;;;12.88;63.18;100533.17;110004;1274;21920;-65
2023/11/09 04:35:41;;;;;;;9.60;4.90;;;;;;;12.85;63.28;100536.20;110001;1285;22007;-65
2023/11/09 04:38:14;;;;;;;10.90;5.50;;;;;;;12.82;63.53;100540.50;109999;1276;21902;-60
2023/11/09 04:40:44;;;;;;;7.00;4.80;;;;;;;12.81;63.59;100539.83;110018;1285;21939;-60
2023/11/09 04:43:11;;;;;;;10.00;5.40;;;;;;;12.80;63.75;100542.67;110014;1277;21896;-65
2023/11/09 04:45:42;;;;;;;13.00;6.20;;;;;;;12.81;63.66;100542.81;110005;1276;21986;-65
2023/11/09 04:48:09;;;;;;;10.90;5.80;;;;;;;12.84;63.87;100544.53;110013;1281;22399;-60
2023/11/09 04:50:38;;;;;;;11.20;6.20;;;;;;;12.87;63.41;100548.52;109969;1285;22018;-60
2023/11/09 04:53:29;;;;;;;11.00;6.70;;;;;;;12.89;63.40;100554.99;110013;1277;21910;-60
2023/11/09 04:56:04;;;;;;;10.10;6.40;;;;;;;12.91;63.25;100561.81;110013;1280;21999;-61
2023/11/09 04:58:50;;;;;;;12.40;6.80;;;;;;;12.89;63.55;100559.39;110020;1285;21870;-60
2023/11/09 05:06:52;;;;;;;10.00;6.00;;;;;;;12.88;62.66;100573.16;110010;1274;21892;-66
2023/11/09 05:09:24;;;;;;;11.40;6.20;;;;;;;12.90;62.63;100575.23;110005;1285;21997;-60
2023/11/09 05:11:51;;;;;;;13.10;5.40;;;;;;;12.92;62.60;100575.36;110005;1277;21933;-61
2023/11/09 05:14:16;;;;;;;10.80;6.30;;;;;;;12.96;62.48;100581.29;110026;1280;21952;-66
2023/11/09 05:16:42;;;;;;;14.90;6.10;;;;;;;13.01;62.44;100584.19;110008;1285;21934;-66
2023/11/09 05:19:09;;;;;;;11.10;6.50;;;;;;;13.05;62.44;100587.80;110026;1274;21950;-66
2023/11/09 05:21:35;;;;;;;11.70;6.60;;;;;;;13.09;62.36;100594.95;110020;1280;21945;-66
2023/11/09 05:24:00;;;;;;;9.90;6.00;;;;;;;13.12;62.25;100599.65;110023;1277;21976;-66
2023/11/09 05:26:26;;;;;;;11.20;6.30;;;;;;;13.09;62.60;100607.63;110012;1285;21997;-60
2023/11/09 05:28:55;;;;;;;10.50;6.10;;;;;;;13.07;62.05;100610.13;110012;1276;21946;-61
2023/11/09 05:31:23;;;;;;;11.50;6.20;;;;;;;13.11;61.79;100616.25;110030;1280;21961;-66
2023/11/09 05:33:51;;;;;;;10.50;6.00;;;;;;;13.14;61.79;100619.17;110021;1276;21933;-66
2023/11/09 05:36:16;;;;;;;10.10;5.70;;;;;;;13.14;61.78;100621.47;110010;1273;21942;-66
2023/11/09 05:38:43;;;;;;;9.70;6.40;;;;;;;13.13;61.69;100626.60;110025;1283;22007;-65
2023/11/09 05:41:09;;;;;;;9.40;5.80;;;;;;;13.10;61.96;100626.64;109935;1285;22305;-60
2023/11/09 05:43:36;;;;;;;10.40;6.60;;;;;;;13.03;62.01;100629.59;110030;1278;21974;-60
2023/11/09 05:46:02;;;;;;;13.30;6.30;;;;;;;13.03;61.70;100628.88;110029;1283;21947;-60
2023/11/09 05:48:27;;;;;;;13.20;6.90;;;;;;;13.04;61.75;100628.33;110021;1283;21986;-66
2023/11/09 05:50:55;;;;;;;10.80;7.20;;;;;;;13.06;61.82;100633.24;110021;1273;21921;-66
2023/11/09 05:53:21;;;;;;;11.40;6.70;;;;;;;13.05;62.30;100635.20;110025;1274;21962;-60
2023/11/09 05:55:46;;;;;;;12.20;7.00;;;;;;;13.10;62.33;100636.50;110006;1285;21960;-67
2023/11/09 05:58:12;;;;;;;9.50;6.10;;;;;;;13.17;62.71;100642.89;110013;1277;21955;-60
2023/11/09 06:00:41;;;;;;;14.50;7.20;;;;;;;13.25;62.59;100649.45;109982;1274;21871;-60
2023/11/09 06:03:07;;;;;;;11.20;6.60;;;;;;;13.32;62.53;100656.53;110000;1285;21859;-60
2023/11/09 06:05:32;;;;;;;13.30;7.90;;;;;;;13.38;62.51;100662.07;110009;1280;21844;-67
2023/11/09 06:07:58;;;;;;;13.40;7.80;;;;;;;13.44;62.63;100664.45;109993;1273;21926;-66
2023/11/09 06:10:25;;;;;;;12.70;6.80;;;;;;;13.49;62.77;100662.42;109995;1285;21877;-60
2023/11/09 06:12:50;;;;;;;12.10;6.80;;;;;;;13.56;63.07;100664.23;110024;1285;21945;-66
2023/11/09 06:15:16;;;;;;;9.50;6.70;;;;;;;13.63;63.06;100670.25;110017;1285;22011;-60
2023/11/09 06:17:43;;;;;;;13.40;8.60;;;;;;;13.66;63.77;100674.95;110029;1283;21922;-66
2023/11/09 06:20:12;;;;;;;12.20;8.40;;;;;;;13.75;63.51;100676.54;110010;1285;21945;-67
2023/11/09 06:22:40;;;;;;;14.70;8.50;;;;;;;13.84;63.62;100679.52;110043;1280;21910;-67
2023/11/09 06:25:10;;;;;;;13.60;8.40;;;;;;;13.93;63.86;100683.21;110015;1274;21923;-67
2023/11/09 06:27:37;;;;;;;14.40;8.50;;;;;;;14.03;64.15;100689.68;110031;1276;21948;-60
2023/11/09 06:30:07;;;;;;;14.40;9.40;;;;;;;14.12;64.34;100692.16;110019;1280;21899;-66
2023/11/09 06:32:33;;;;;;;;;;;;;;;14.18;64.41;100690.42;110005;1285;22001;-67
2023/11/09 06:35:03;;;;;;;11.80;8.50;;;;;;;14.27;64.09;100692.52;109997;1277;21941;-66
2023/11/09 06:37:32;;;;;;;13.10;9.40;;;;;;;14.43;64.10;100691.46;110021;1275;21899;-60
2023/11/09 06:39:59;;;;;;;13.50;8.80;;;;;;;14.59;64.26;100690.38;109987;1280;21928;-67
2023/11/09 06:42:25;;;;;;;13.50;8.70;;;;;;;14.72;64.07;100695.02;108501;1277;1002664;-66
2023/11/09 06:44:52;;;;;;;13.40;8.60;;;;;;;14.82;64.10;100702.91;110012;1276;21947;-67
2023/11/09 06:47:18;;;;;;;15.10;9.00;;;;;;;14.95;63.90;100707.54;110013;1279;22005;-67
2023/11/09 06:49:44;;;;;;;15.80;9.90;;;;;;;15.04;63.86;100706.79;110009;1285;21937;-66
2023/11/09 06:52:10;;;;;;;14.20;9.00;;;;;;;15.13;63.48;100707.10;110010;1278;21932;-67
2023/11/09 06:54:35;;;;;;;14.80;9.00;;;;;;;15.25;63.14;100703.23;109991;1283;21950;-60
2023/11/09 06:57:02;;;;;;;15.30;9.90;;;;;;;15.36;63.14;100704.38;110021;1275;21955;-67
2023/11/09 06:59:28;;;;;;;14.40;9.40;;;;;;;15.46;63.00;100707.63;109999;1275;22458;-67
2023/11/09 07:01:54;;;;;;;13.90;9.30;;;;;;;15.61;62.80;100711.48;109981;1280;21887;-68
2023/11/09 07:04:23;;;;;;;17.30;9.80;;;;;;;15.68;62.46;100710.38;110005;1285;21947;-68
2023/11/09 07:06:49;;;;;;;13.90;9.30;;;;;;;15.85;62.49;100709.73;110000;1276;21972;-63
2023/11/09 07:09:16;;;;;;;14.40;9.30;;;;;;;16.02;62.03;100707.84;110003;1283;22299;-68
2023/11/09 07:11:43;;;;;;;16.00;9.00;;;;;;;16.23;62.39;100711.84;110005;1285;21948;-63
2023/11/09 07:14:10;;;;;;;16.50;9.00;;;;;;;16.43;61.76;100712.98;110035;1285;21964;-68
2023/11/09 07:16:36;;;;;;;17.70;10.20;;;;;;;16.57;60.86;100713.42;109996;1281;21965;-68
2023/11/09 07:19:02;;;;;;;14.00;9.30;;;;;;;16.71;60.56;100713.67;110004;1282;22400;-69
2023/11/09 07:21:27;;;;;;;11.70;8.40;;;;;;;16.80;59.31;100718.00;110002;1285;21957;-68
2023/11/09 07:23:59;;;;;;;14.00;8.60;;;;;;;16.84;58.99;100721.78;109972;1285;21907;-68
2023/11/09 07:26:26;;;;;;;15.40;9.20;;;;;;;16.86;58.57;100717.63;110013;1285;21953;-68
2023/11/09 07:28:53;;;;;;;16.00;9.20;;;;;;;16.90;58.53;100715.02;109993;1273;22132;-62
2023/11/09 07:31:20;;;;;;;18.30;9.00;;;;;;;16.91;58.20;100718.00;110016;1285;21972;-70
2023/11/09 07:33:47;;;;;;;13.40;8.90;;;;;;;16.91;57.86;100721.73;110024;1285;21951;-68
2023/11/09 07:36:12;;;;;;;13.30;9.20;;;;;;;16.89;57.47;100721.42;109999;1273;22219;-63
2023/11/09 07:38:38;;;;;;;21.90;10.10;;;;;;;16.85;57.38;100723.86;110014;1275;22021;-60
2023/11/09 07:41:03;;;;;;;19.00;10.00;;;;;;;16.78;57.02;100730.84;110005;1276;21996;-61
2023/11/09 07:43:31;;;;;;;16.70;10.00;;;;;;;16.70;56.90;100732.70;110022;1285;21993;-63
2023/11/09 07:45:56;;;;;;;18.40;9.60;;;;;;;16.71;57.30;100739.56;110014;1278;21932;-61
2023/11/09 07:48:24;;;;;;;15.00;9.80;;;;;;;16.76;57.35;100747.00;110003;1277;21957;-68
2023/11/09 07:50:50;;;;;;;14.50;9.40;;;;;;;16.83;57.24;100750.33;110004;1280;22009;-60
2023/11/09 07:53:16;;;;;;;18.80;10.60;;;;;;;16.83;56.76;100754.07;110018;1281;21994;-68
2023/11/09 07:55:42;;;;;;;22.10;10.30;;;;;;;16.83;56.68;100756.55;109993;1285;21945;-60
2023/11/09 07:58:08;;;;;;;13.20;9.40;;;;;;;16.87;57.14;100755.70;110021;1275;21949;-62
2023/11/09 08:00:34;;;;;;;13.20;9.20;;;;;;;16.89;56.80;100758.84;109987;1285;21845;-60
2023/11/09 08:03:01;;;;;;;13.80;8.80;;;;;;;16.91;56.53;100756.83;110010;1280;21946;-61
2023/11/09 08:05:29;;;;;;;15.00;9.70;;;;;;;16.94;56.57;100752.48;110007;1274;21944;-68
2023/11/09 08:07:55;;;;;;;13.00;8.80;;;;;;;17.01;56.43;100751.39;110012;1285;21962;-62
2023/11/09 08:10:21;;;;;;;19.10;9.70;;;;;;;17.08;55.94;100754.70;110019;1285;21975;-67
2023/11/09 08:12:47;;;;;;;14.10;9.60;;;;;;;17.14;55.63;100757.33;110001;1285;21945;-60
2023/11/09 08:15:13;;;;;;;16.10;10.10;;;;;;;17.27;55.94;100757.27;110014;1281;22005;-69
2023/11/09 08:17:41;;;;;;;18.40;9.80;;;;;;;17.40;55.29;100756.83;110019;1275;21967;-69
2023/11/09 08:20:13;;;;;;;14.20;9.40;;;;;;;17.54;55.07;100757.20;109983;1285;22012;-69
2023/11/09 08:22:44;;;;;;;12.00;8.30;;;;;;;17.66;54.97;100761.41;110028;1273;21916;-67
2023/11/09 08:25:12;;;;;;;13.20;8.60;;;;;;;17.79;54.22;100770.52;110019;1276;21919;-69
2023/11/09 08:27:40;;;;;;;14.50;9.30;;;;;;;17.89;53.67;100772.84;109997;1285;21944;-69
2023/11/09 08:30:11;;;;;;;16.80;9.10;;;;;;;17.94;53.38;100773.00;109250;1285;1002317;-61
2023/11/09 08:32:41;;;;;;;14.30;9.20;;;;;;;18.00;53.28;100775.30;110018;1273;22468;-69
2023/11/09 08:35:10;;;;;;;;;;;;;;;18.17;54.17;100772.17;110007;1285;21939;-60
2023/11/09 08:37:37;;;;;;;12.80;8.80;;;;;;;18.30;53.13;100772.61;109995;1285;21959;-69
2023/11/09 08:40:16;;;;;;;13.80;9.10;;;;;;;18.34;52.56;100773.85;110014;1285;22028;-62
2023/11/09 08:42:53;;;;;;;12.90;8.00;;;;;;;18.42;52.91;100777.82;110011;1285;21955;-60
2023/11/09 08:45:21;;;;;;;14.20;8.50;;;;;;;18.53;52.69;100776.14;110024;1285;21907;-69
2023/11/09 08:47:51;;;;;;;14.30;7.90;;;;;;;18.58;52.65;100774.18;109980;1285;21934;-61
2023/11/09 08:50:17;;;;;;;15.50;9.10;;;;;;;18.74;51.32;100777.63;110018;1285;21925;-69
2023/11/09 08:52:43;;;;;;;10.90;7.80;;;;;;;18.79;50.85;100779.02;110006;1285;21949;-62
2023/11/09 08:55:09;;;;;;;13.40;8.80;;;;;;;18.88;51.69;100777.77;109971;1285;21929;-61
2023/11/09 08:57:38;;;;;;;13.60;8.40;;;;;;;18.99;51.01;100778.09;110011;1277;22030;-69
2023/11/09 09:00:06;;;;;;;12.90;8.30;;;;;;;19.03;50.96;100774.52;110010;1285;21926;-68
2023/11/09 09:02:32;;;;;;;11.60;7.50;;;;;;;19.09;50.01;100772.16;110015;1285;22258;-61
2023/11/09 09:05:03;;;;;;;10.30;6.30;;;;;;;19.19;49.88;100775.30;110019;1285;21939;-61
2023/11/09 09:07:29;;;;;;;10.90;6.60;;;;;;;19.28;49.21;100774.20;109993;1285;21946;-69
2023/11/09 09:09:55;;;;;;;9.90;6.40;;;;;;;19.32;48.10;100775.84;110012;1285;21999;-69
2023/11/09 09:12:21;;;;;;;9.10;5.90;;;;;;;19.45;49.00;100783.30;109999;1285;21920;-63
2023/11/09 09:14:50;;;;;;;8.90;6.10;;;;;;;19.64;48.94;100782.10;110002;1285;22006;-68
2023/11/09 09:17:17;;;;;;;7.80;5.60;;;;;;;19.73;48.22;100783.13;109989;1284;21916;-61
2023/11/09 09:19:42;;;;;;;10.00;6.40;;;;;;;19.72;47.66;100784.77;110027;1276;21955;-69
2023/11/09 09:22:09;;;;;;;8.20;5.90;;;;;;;19.69;47.40;100787.77;110018;1279;21929;-63
2023/11/09 09:24:40;;;;;;;8.00;5.60;;;;;;;19.68;47.30;100788.34;110011;1285;21966;-69
2023/11/09 09:27:09;;;;;;;9.30;6.30;;;;;;;19.79;47.25;100790.52;110012;1285;21892;-69
2023/11/09 09:29:35;;;;;;;11.00;6.70;;;;;;;19.93;46.89;100789.05;110016;1284;22481;-61
2023/11/09 09:32:04;;;;;;;9.30;6.40;;;;;;;20.05;46.43;100785.16;110008;1284;21869;-61
2023/11/09 09:34:30;;;;;;;8.80;5.90;;;;;;;20.16;46.14;100787.65;109899;1285;21945;-61
2023/11/09 09:36:58;;;;;;;8.10;6.00;;;;;;;20.07;45.49;100785.21;109987;1284;21975;-69
2023/11/09 09:39:24;;;;;;;8.60;5.60;;;;;;;20.09;46.36;100782.80;110004;1283;21892;-61
2023/11/09 09:41:51;;;;;;;9.40;5.00;;;;;;;20.20;46.51;100775.71;110006;1281;22258;-61
2023/11/09 09:44:17;;;;;;;8.20;5.70;;;;;;;20.18;44.85;100775.45;110026;1285;21959;-61
2023/11/09 09:46:43;;;;;;;8.80;4.80;;;;;;;20.15;45.23;100781.11;109976;1285;21932;-61
2023/11/09 09:49:14;;;;;;;11.10;5.70;;;;;;;20.28;46.21;100783.35;110007;1285;21875;-67
2023/11/09 09:51:40;;;;;;;6.30;4.70;;;;;;;20.49;44.89;100780.44;110015;1279;21841;-67
2023/11/09 09:54:09;;;;;;;6.10;3.60;;;;;;;20.56;43.96;100783.50;110007;1285;21955;-67
2023/11/09 09:56:38;;;;;;;7.80;3.80;;;;;;;20.58;43.53;100784.97;110012;1284;21987;-61
2023/11/09 09:59:09;;;;;;;7.70;4.10;;;;;;;20.66;43.71;100787.12;109981;1284;21998;-61
2023/11/09 10:01:37;;;;;;;5.90;3.50;;;;;;;20.72;43.26;100790.42;110020;1284;22013;-61
2023/11/09 10:04:04;;;;;;;7.10;3.90;;;;;;;20.71;42.77;100789.73;109995;1285;21957;-65
2023/11/09 10:06:31;;;;;;;6.90;3.70;;;;;;;20.72;43.20;100793.44;110003;1282;21862;-68
2023/11/09 10:08:57;;;;;;;6.40;3.90;;;;;;;20.75;42.85;100791.86;109991;1282;21952;-68
2023/11/09 10:11:23;;;;;;;8.70;3.00;;;;;;;20.79;41.83;100793.64;110010;1276;22001;-68
2023/11/09 10:13:49;;;;;;;9.50;3.00;;;;;;;20.93;42.27;100791.91;110030;1285;21939;-68
2023/11/09 10:16:15;;;;;;;5.30;2.90;;;;;;;21.13;42.17;100793.45;109986;1285;22013;-68
2023/11/09 10:18:40;;;;;;;6.30;3.00;;;;;;;21.25;40.79;100787.64;109856;1275;21916;-61
2023/11/09 10:21:07;;;;;;;7.00;3.20;;;;;;;21.39;40.84;100793.19;110014;1283;21964;-68
2023/11/09 10:23:32;;;;;;;7.50;3.20;;;;;;;21.48;39.68;100792.02;109871;1285;21955;-61
2023/11/09 10:26:02;;;;;;;5.60;2.80;;;;;;;21.52;40.20;100795.73;109969;1280;22432;-60
2023/11/09 10:28:28;;;;;;;6.60;3.20;;;;;;;21.53;40.15;100796.97;110021;1283;21951;-70
2023/11/09 10:30:55;;;;;;;4.20;2.80;;;;;;;21.53;40.64;100796.39;109954;1285;22025;-69
2023/11/09 10:33:21;;;;;;;4.80;2.70;;;;;;;21.35;39.41;100795.19;109948;1285;21993;-61
2023/11/09 10:35:47;;;;;;;4.60;2.60;;;;;;;21.27;39.22;100794.54;109990;1276;21909;-61
2023/11/09 10:38:17;;;;;;;7.60;3.10;;;;;;;21.29;39.13;100795.15;110018;1285;21924;-71
2023/11/09 10:40:43;;;;;;;6.00;3.00;;;;;;;21.19;38.55;100800.48;110021;1285;21914;-61
2023/11/09 10:43:14;;;;;;;7.20;3.10;;;;;;;21.06;38.81;100800.73;110000;1285;21868;-70
2023/11/09 10:45:42;;;;;;;4.10;2.40;;;;;;;21.04;39.19;100801.89;110026;1282;22359;-70
2023/11/09 10:48:17;;;;;;;6.00;2.60;;;;;;;21.09;38.92;100804.84;110012;1285;21952;-71
2023/11/09 10:50:47;;;;;;;6.90;2.80;;;;;;;20.96;39.17;100803.34;110005;1285;21969;-61
2023/11/09 10:53:20;;;;;;;5.30;3.00;;;;;;;20.89;39.59;100807.45;110011;1274;21957;-71
2023/11/09 10:55:53;;;;;;;5.60;2.50;;;;;;;20.67;38.37;100811.31;110006;1285;22404;-71
2023/11/09 10:58:22;;;;;;;6.30;2.70;;;;;;;20.52;38.87;100813.95;110029;1285;21962;-70
2023/11/09 11:00:51;;;;;;;4.90;2.80;;;;;;;20.50;39.26;100814.42;110010;1285;21930;-71
2023/11/09 11:03:32;;;;;;;5.70;2.90;;;;;;;20.57;39.45;100815.72;109974;1285;22467;-70
2023/11/09 11:06:00;;;;;;;9.20;2.30;;;;;;;20.64;38.85;100815.57;110004;1285;21993;-61
2023/11/09 11:08:26;;;;;;;6.80;2.70;;;;;;;20.68;38.11;100821.27;110026;1285;21948;-61
2023/11/09 11:10:52;;;;;;;5.70;2.70;;;;;;;20.56;37.56;100823.09;109873;1285;21962;-61
2023/11/09 11:13:19;;;;;;;4.40;2.40;;;;;;;20.37;38.07;100827.33;107738;1284;1002801;-61
2023/11/09 11:15:52;;;;;;;5.90;2.90;;;;;;;20.18;38.79;100830.70;110019;1285;21945;-74
2023/11/09 11:18:21;;;;;;;6.20;2.80;;;;;;;19.92;38.65;100828.98;109999;1283;21979;-73
2023/11/09 11:20:51;;;;;;;4.40;2.00;;;;;;;19.70;39.30;100831.88;110023;1285;22002;-73